sensor_id;sensor_type;location;lat;lon;timestamp;P1;durP1;ratioP1;P2;durP2;ratioP2
32200;SDS011;18701;45.588;5.288;2023-06-22T00:01:11;14.43;;;3.78;;
32200;SDS011;18701;45.588;5.288;2023-06-22T00:03:37;11.27;;;3.40;;
32200;SDS011;18701;45.588;5.288;2023-06-22T00:06:02;15.68;;;3.75;;
32200;SDS011;18701;45.588;5.288;2023-06-22T00:08:28;17.40;;;4.20;;
32200;SDS011;18701;45.588;5.288;2023-06-22T00:10:53;13.15;;;3.90;;
32200;SDS011;18701;45.588;5.288;2023-06-22T00:13:19;18.10;;;4.50;;
32200;SDS011;18701;45.588;5.288;2023-06-22T00:15:45;11.15;;;3.47;;
32200;SDS011;18701;45.588;5.288;2023-06-22T00:18:10;17.13;;;4.10;;
32200;SDS011;18701;45.588;5.288;2023-06-22T00:20:38;15.50;;;4.40;;
32200;SDS011;18701;45.588;5.288;2023-06-22T00:23:04;15.65;;;4.28;;
32200;SDS011;18701;45.588;5.288;2023-06-22T00:25:39;13.75;;;3.67;;
32200;SDS011;18701;45.588;5.288;2023-06-22T00:28:05;20.65;;;4.07;;
32200;SDS011;18701;45.588;5.288;2023-06-22T00:30:32;19.35;;;4.47;;
32200;SDS011;18701;45.588;5.288;2023-06-22T00:32:59;12.35;;;3.95;;
32200;SDS011;18701;45.588;5.288;2023-06-22T00:35:25;14.48;;;3.63;;
32200;SDS011;18701;45.588;5.288;2023-06-22T00:37:55;15.60;;;3.28;;
32200;SDS011;18701;45.588;5.288;2023-06-22T00:40:29;11.25;;;4.15;;
32200;SDS011;18701;45.588;5.288;2023-06-22T00:42:57;13.23;;;4.13;;
32200;SDS011;18701;45.588;5.288;2023-06-22T00:45:23;14.35;;;3.63;;
32200;SDS011;18701;45.588;5.288;2023-06-22T00:47:53;12.88;;;3.47;;
32200;SDS011;18701;45.588;5.288;2023-06-22T00:50:22;11.82;;;3.70;;
32200;SDS011;18701;45.588;5.288;2023-06-22T00:52:53;10.45;;;4.32;;
32200;SDS011;18701;45.588;5.288;2023-06-22T00:55:23;20.35;;;4.45;;
32200;SDS011;18701;45.588;5.288;2023-06-22T00:57:51;12.80;;;3.90;;
32200;SDS011;18701;45.588;5.288;2023-06-22T01:00:20;15.48;;;4.07;;
32200;SDS011;18701;45.588;5.288;2023-06-22T01:02:47;13.50;;;3.75;;
32200;SDS011;18701;45.588;5.288;2023-06-22T01:05:17;8.70;;;3.55;;
32200;SDS011;18701;45.588;5.288;2023-06-22T01:13:18;9.65;;;2.80;;
32200;SDS011;18701;45.588;5.288;2023-06-22T01:16:30;13.82;;;3.83;;
32200;SDS011;18701;45.588;5.288;2023-06-22T01:18:40;17.45;;;4.25;;
32200;SDS011;18701;45.588;5.288;2023-06-22T01:21:08;14.55;;;3.50;;
32200;SDS011;18701;45.588;5.288;2023-06-22T01:26:34;12.23;;;3.75;;
32200;SDS011;18701;45.588;5.288;2023-06-22T01:29:00;19.88;;;3.63;;
32200;SDS011;18701;45.588;5.288;2023-06-22T01:31:28;15.15;;;4.13;;
32200;SDS011;18701;45.588;5.288;2023-06-22T01:34:04;15.00;;;3.50;;
32200;SDS011;18701;45.588;5.288;2023-06-22T01:36:31;13.15;;;4.00;;
32200;SDS011;18701;45.588;5.288;2023-06-22T01:38:59;17.33;;;4.60;;
32200;SDS011;18701;45.588;5.288;2023-06-22T01:41:27;13.55;;;4.50;;
32200;SDS011;18701;45.588;5.288;2023-06-22T01:43:55;17.52;;;3.92;;
32200;SDS011;18701;45.588;5.288;2023-06-22T01:46:21;13.43;;;3.30;;
32200;SDS011;18701;45.588;5.288;2023-06-22T01:48:48;16.38;;;3.53;;
32200;SDS011;18701;45.588;5.288;2023-06-22T01:51:15;18.90;;;3.78;;
32200;SDS011;18701;45.588;5.288;2023-06-22T01:53:41;19.08;;;3.92;;
32200;SDS011;18701;45.588;5.288;2023-06-22T01:56:07;13.50;;;3.60;;
32200;SDS011;18701;45.588;5.288;2023-06-22T01:58:33;18.10;;;4.47;;
32200;SDS011;18701;45.588;5.288;2023-06-22T02:01:11;9.15;;;3.22;;
32200;SDS011;18701;45.588;5.288;2023-06-22T02:03:41;24.20;;;4.50;;
32200;SDS011;18701;45.588;5.288;2023-06-22T02:06:19;15.63;;;3.05;;
32200;SDS011;18701;45.588;5.288;2023-06-22T02:08:51;16.42;;;4.00;;
32200;SDS011;18701;45.588;5.288;2023-06-22T02:11:21;14.95;;;4.18;;
32200;SDS011;18701;45.588;5.288;2023-06-22T02:13:48;18.95;;;3.75;;
32200;SDS011;18701;45.588;5.288;2023-06-22T02:16:14;15.40;;;3.92;;
32200;SDS011;18701;45.588;5.288;2023-06-22T02:18:47;15.98;;;3.88;;
32200;SDS011;18701;45.588;5.288;2023-06-22T02:21:18;15.55;;;3.05;;
32200;SDS011;18701;45.588;5.288;2023-06-22T02:23:44;17.17;;;3.92;;
32200;SDS011;18701;45.588;5.288;2023-06-22T02:26:09;17.77;;;4.05;;
32200;SDS011;18701;45.588;5.288;2023-06-22T02:28:35;27.02;;;4.53;;
32200;SDS011;18701;45.588;5.288;2023-06-22T02:31:01;20.45;;;4.15;;
32200;SDS011;18701;45.588;5.288;2023-06-22T02:33:26;18.60;;;3.80;;
32200;SDS011;18701;45.588;5.288;2023-06-22T02:35:52;11.38;;;4.25;;
32200;SDS011;18701;45.588;5.288;2023-06-22T02:38:18;9.93;;;4.22;;
32200;SDS011;18701;45.588;5.288;2023-06-22T02:40:44;18.15;;;4.30;;
32200;SDS011;18701;45.588;5.288;2023-06-22T02:43:10;19.98;;;4.07;;
32200;SDS011;18701;45.588;5.288;2023-06-22T02:45:35;18.42;;;4.78;;
32200;SDS011;18701;45.588;5.288;2023-06-22T02:48:01;20.00;;;4.32;;
32200;SDS011;18701;45.588;5.288;2023-06-22T02:50:27;24.48;;;4.78;;
32200;SDS011;18701;45.588;5.288;2023-06-22T02:52:52;17.70;;;4.15;;
32200;SDS011;18701;45.588;5.288;2023-06-22T02:55:18;19.60;;;5.32;;
32200;SDS011;18701;45.588;5.288;2023-06-22T02:57:44;16.17;;;3.75;;
32200;SDS011;18701;45.588;5.288;2023-06-22T03:00:11;17.20;;;4.10;;
32200;SDS011;18701;45.588;5.288;2023-06-22T03:02:44;16.10;;;4.05;;
32200;SDS011;18701;45.588;5.288;2023-06-22T03:05:13;17.08;;;3.40;;
32200;SDS011;18701;45.588;5.288;2023-06-22T03:07:43;10.40;;;3.92;;
32200;SDS011;18701;45.588;5.288;2023-06-22T03:10:10;13.88;;;3.85;;
32200;SDS011;18701;45.588;5.288;2023-06-22T03:12:37;23.85;;;4.50;;
32200;SDS011;18701;45.588;5.288;2023-06-22T03:15:04;16.15;;;3.40;;
32200;SDS011;18701;45.588;5.288;2023-06-22T03:17:34;13.88;;;3.65;;
32200;SDS011;18701;45.588;5.288;2023-06-22T03:20:01;10.73;;;3.20;;
32200;SDS011;18701;45.588;5.288;2023-06-22T03:22:33;23.30;;;4.05;;
32200;SDS011;18701;45.588;5.288;2023-06-22T03:25:00;17.48;;;4.28;;
32200;SDS011;18701;45.588;5.288;2023-06-22T03:27:26;20.73;;;4.25;;
32200;SDS011;18701;45.588;5.288;2023-06-22T03:29:52;13.43;;;4.05;;
32200;SDS011;18701;45.588;5.288;2023-06-22T03:32:17;19.83;;;4.40;;
32200;SDS011;18701;45.588;5.288;2023-06-22T03:34:43;23.38;;;4.35;;
32200;SDS011;18701;45.588;5.288;2023-06-22T03:37:11;17.67;;;4.20;;
32200;SDS011;18701;45.588;5.288;2023-06-22T03:39:38;23.90;;;4.40;;
32200;SDS011;18701;45.588;5.288;2023-06-22T03:42:04;15.30;;;3.35;;
32200;SDS011;18701;45.588;5.288;2023-06-22T03:44:30;19.65;;;4.15;;
32200;SDS011;18701;45.588;5.288;2023-06-22T03:46:56;25.67;;;4.55;;
32200;SDS011;18701;45.588;5.288;2023-06-22T03:49:24;25.52;;;4.03;;
32200;SDS011;18701;45.588;5.288;2023-06-22T03:51:50;24.92;;;4.00;;
32200;SDS011;18701;45.588;5.288;2023-06-22T03:54:15;28.15;;;4.00;;
32200;SDS011;18701;45.588;5.288;2023-06-22T03:56:41;10.52;;;3.88;;
32200;SDS011;18701;45.588;5.288;2023-06-22T03:59:06;16.05;;;4.18;;
32200;SDS011;18701;45.588;5.288;2023-06-22T04:01:32;23.27;;;4.50;;
32200;SDS011;18701;45.588;5.288;2023-06-22T04:03:57;27.58;;;4.88;;
32200;SDS011;18701;45.588;5.288;2023-06-22T04:06:23;18.40;;;4.45;;
32200;SDS011;18701;45.588;5.288;2023-06-22T04:08:48;28.80;;;5.30;;
32200;SDS011;18701;45.588;5.288;2023-06-22T04:11:16;21.02;;;3.92;;
32200;SDS011;18701;45.588;5.288;2023-06-22T04:13:43;20.73;;;4.38;;
32200;SDS011;18701;45.588;5.288;2023-06-22T04:16:08;16.23;;;4.18;;
32200;SDS011;18701;45.588;5.288;2023-06-22T04:18:34;15.73;;;3.33;;
32200;SDS011;18701;45.588;5.288;2023-06-22T04:20:59;25.85;;;4.45;;
32200;SDS011;18701;45.588;5.288;2023-06-22T04:23:25;19.67;;;4.82;;
32200;SDS011;18701;45.588;5.288;2023-06-22T04:25:50;20.95;;;5.03;;
32200;SDS011;18701;45.588;5.288;2023-06-22T04:28:16;18.20;;;4.78;;
32200;SDS011;18701;45.588;5.288;2023-06-22T04:30:42;24.48;;;4.57;;
32200;SDS011;18701;45.588;5.288;2023-06-22T04:33:14;16.92;;;4.38;;
32200;SDS011;18701;45.588;5.288;2023-06-22T04:35:40;20.42;;;4.38;;
32200;SDS011;18701;45.588;5.288;2023-06-22T04:38:06;22.55;;;4.82;;
32200;SDS011;18701;45.588;5.288;2023-06-22T04:40:32;14.77;;;4.57;;
32200;SDS011;18701;45.588;5.288;2023-06-22T04:42:58;24.15;;;5.10;;
32200;SDS011;18701;45.588;5.288;2023-06-22T04:45:27;23.90;;;5.85;;
32200;SDS011;18701;45.588;5.288;2023-06-22T04:47:54;25.02;;;4.65;;
32200;SDS011;18701;45.588;5.288;2023-06-22T04:50:19;14.63;;;4.50;;
32200;SDS011;18701;45.588;5.288;2023-06-22T04:52:46;20.80;;;4.00;;
32200;SDS011;18701;45.588;5.288;2023-06-22T04:55:12;18.67;;;3.88;;
32200;SDS011;18701;45.588;5.288;2023-06-22T04:57:43;17.90;;;4.65;;
32200;SDS011;18701;45.588;5.288;2023-06-22T05:00:14;28.42;;;5.22;;
32200;SDS011;18701;45.588;5.288;2023-06-22T05:02:43;17.30;;;4.82;;
32200;SDS011;18701;45.588;5.288;2023-06-22T05:05:10;18.73;;;4.43;;
32200;SDS011;18701;45.588;5.288;2023-06-22T05:07:38;19.13;;;5.47;;
32200;SDS011;18701;45.588;5.288;2023-06-22T05:10:08;17.83;;;4.85;;
32200;SDS011;18701;45.588;5.288;2023-06-22T05:12:35;20.27;;;5.15;;
32200;SDS011;18701;45.588;5.288;2023-06-22T05:15:01;17.50;;;4.72;;
32200;SDS011;18701;45.588;5.288;2023-06-22T05:17:26;21.85;;;4.95;;
32200;SDS011;18701;45.588;5.288;2023-06-22T05:19:52;22.08;;;4.07;;
32200;SDS011;18701;45.588;5.288;2023-06-22T05:22:18;17.08;;;4.03;;
32200;SDS011;18701;45.588;5.288;2023-06-22T05:24:44;22.45;;;4.28;;
32200;SDS011;18701;45.588;5.288;2023-06-22T05:27:10;24.67;;;4.95;;
32200;SDS011;18701;45.588;5.288;2023-06-22T05:29:36;21.05;;;4.47;;
32200;SDS011;18701;45.588;5.288;2023-06-22T05:32:02;17.90;;;4.72;;
32200;SDS011;18701;45.588;5.288;2023-06-22T05:34:28;25.48;;;5.85;;
32200;SDS011;18701;45.588;5.288;2023-06-22T05:36:54;16.88;;;5.28;;
32200;SDS011;18701;45.588;5.288;2023-06-22T05:39:20;19.25;;;4.40;;
32200;SDS011;18701;45.588;5.288;2023-06-22T05:41:45;20.02;;;5.07;;
32200;SDS011;18701;45.588;5.288;2023-06-22T05:44:11;19.38;;;4.55;;
32200;SDS011;18701;45.588;5.288;2023-06-22T05:46:40;17.27;;;5.07;;
32200;SDS011;18701;45.588;5.288;2023-06-22T05:49:09;21.67;;;5.45;;
32200;SDS011;18701;45.588;5.288;2023-06-22T05:51:36;24.65;;;5.28;;
32200;SDS011;18701;45.588;5.288;2023-06-22T05:54:02;21.17;;;5.70;;
32200;SDS011;18701;45.588;5.288;2023-06-22T05:56:27;19.50;;;5.25;;
32200;SDS011;18701;45.588;5.288;2023-06-22T05:58:53;24.20;;;6.15;;
32200;SDS011;18701;45.588;5.288;2023-06-22T06:01:18;17.65;;;5.63;;
32200;SDS011;18701;45.588;5.288;2023-06-22T06:03:44;22.70;;;5.43;;
32200;SDS011;18701;45.588;5.288;2023-06-22T06:06:09;19.50;;;5.95;;
32200;SDS011;18701;45.588;5.288;2023-06-22T06:08:36;20.98;;;5.45;;
32200;SDS011;18701;45.588;5.288;2023-06-22T06:11:04;19.83;;;5.32;;
32200;SDS011;18701;45.588;5.288;2023-06-22T06:13:30;16.88;;;4.93;;
32200;SDS011;18701;45.588;5.288;2023-06-22T06:15:56;18.00;;;5.00;;
32200;SDS011;18701;45.588;5.288;2023-06-22T06:18:22;15.93;;;5.40;;
32200;SDS011;18701;45.588;5.288;2023-06-22T06:20:47;18.55;;;5.80;;
32200;SDS011;18701;45.588;5.288;2023-06-22T06:23:13;21.10;;;5.95;;
32200;SDS011;18701;45.588;5.288;2023-06-22T06:25:39;25.77;;;6.03;;
32200;SDS011;18701;45.588;5.288;2023-06-22T06:28:04;31.60;;;7.00;;
32200;SDS011;18701;45.588;5.288;2023-06-22T06:30:30;30.83;;;7.55;;
32200;SDS011;18701;45.588;5.288;2023-06-22T06:32:55;24.50;;;7.00;;
32200;SDS011;18701;45.588;5.288;2023-06-22T06:35:21;25.35;;;7.47;;
32200;SDS011;18701;45.588;5.288;2023-06-22T06:37:48;20.05;;;6.72;;
32200;SDS011;18701;45.588;5.288;2023-06-22T06:40:14;24.80;;;6.22;;
32200;SDS011;18701;45.588;5.288;2023-06-22T06:42:41;23.40;;;7.10;;
32200;SDS011;18701;45.588;5.288;2023-06-22T06:45:15;21.67;;;6.00;;
32200;SDS011;18701;45.588;5.288;2023-06-22T06:47:42;24.85;;;6.70;;
32200;SDS011;18701;45.588;5.288;2023-06-22T06:50:08;26.27;;;7.50;;
32200;SDS011;18701;45.588;5.288;2023-06-22T06:52:34;18.17;;;7.80;;
32200;SDS011;18701;45.588;5.288;2023-06-22T06:55:00;26.15;;;7.22;;
32200;SDS011;18701;45.588;5.288;2023-06-22T06:57:27;24.40;;;6.93;;
32200;SDS011;18701;45.588;5.288;2023-06-22T06:59:54;26.88;;;7.18;;
32200;SDS011;18701;45.588;5.288;2023-06-22T07:02:23;23.42;;;8.32;;
32200;SDS011;18701;45.588;5.288;2023-06-22T07:04:49;22.80;;;8.50;;
32200;SDS011;18701;45.588;5.288;2023-06-22T07:07:15;22.60;;;8.18;;
32200;SDS011;18701;45.588;5.288;2023-06-22T07:09:40;24.52;;;7.80;;
32200;SDS011;18701;45.588;5.288;2023-06-22T07:12:06;19.92;;;7.07;;
32200;SDS011;18701;45.588;5.288;2023-06-22T07:14:32;15.60;;;6.75;;
32200;SDS011;18701;45.588;5.288;2023-06-22T07:16:58;18.13;;;6.70;;
32200;SDS011;18701;45.588;5.288;2023-06-22T07:19:24;22.67;;;6.43;;
32200;SDS011;18701;45.588;5.288;2023-06-22T07:21:51;21.65;;;6.38;;
32200;SDS011;18701;45.588;5.288;2023-06-22T07:24:17;25.70;;;6.70;;
32200;SDS011;18701;45.588;5.288;2023-06-22T07:26:44;25.02;;;6.32;;
32200;SDS011;18701;45.588;5.288;2023-06-22T07:29:11;18.58;;;5.50;;
32200;SDS011;18701;45.588;5.288;2023-06-22T07:31:37;13.77;;;5.63;;
32200;SDS011;18701;45.588;5.288;2023-06-22T07:34:02;19.20;;;5.95;;
32200;SDS011;18701;45.588;5.288;2023-06-22T07:36:29;24.15;;;7.18;;
32200;SDS011;18701;45.588;5.288;2023-06-22T07:38:55;29.25;;;8.43;;
32200;SDS011;18701;45.588;5.288;2023-06-22T07:41:20;20.55;;;5.88;;
32200;SDS011;18701;45.588;5.288;2023-06-22T07:43:46;27.63;;;6.57;;
32200;SDS011;18701;45.588;5.288;2023-06-22T07:46:12;15.85;;;5.55;;
32200;SDS011;18701;45.588;5.288;2023-06-22T07:48:38;22.73;;;5.63;;
32200;SDS011;18701;45.588;5.288;2023-06-22T07:51:04;23.13;;;6.25;;
32200;SDS011;18701;45.588;5.288;2023-06-22T07:53:31;30.02;;;7.45;;
32200;SDS011;18701;45.588;5.288;2023-06-22T07:55:56;42.13;;;13.60;;
32200;SDS011;18701;45.588;5.288;2023-06-22T07:58:22;25.27;;;8.77;;
32200;SDS011;18701;45.588;5.288;2023-06-22T08:00:47;19.30;;;7.13;;
32200;SDS011;18701;45.588;5.288;2023-06-22T08:03:14;27.83;;;7.35;;
32200;SDS011;18701;45.588;5.288;2023-06-22T08:05:40;21.17;;;7.45;;
32200;SDS011;18701;45.588;5.288;2023-06-22T08:08:06;22.50;;;6.40;;
32200;SDS011;18701;45.588;5.288;2023-06-22T08:10:31;26.83;;;6.45;;
32200;SDS011;18701;45.588;5.288;2023-06-22T08:12:57;24.98;;;6.18;;
32200;SDS011;18701;45.588;5.288;2023-06-22T08:15:23;17.20;;;5.85;;
32200;SDS011;18701;45.588;5.288;2023-06-22T08:17:50;20.42;;;5.32;;
32200;SDS011;18701;45.588;5.288;2023-06-22T08:20:17;23.05;;;5.90;;
32200;SDS011;18701;45.588;5.288;2023-06-22T08:22:43;16.55;;;4.88;;
32200;SDS011;18701;45.588;5.288;2023-06-22T08:25:09;17.73;;;5.22;;
32200;SDS011;18701;45.588;5.288;2023-06-22T08:27:36;22.85;;;7.53;;
32200;SDS011;18701;45.588;5.288;2023-06-22T08:30:06;21.60;;;7.10;;
32200;SDS011;18701;45.588;5.288;2023-06-22T08:32:32;18.13;;;4.90;;
32200;SDS011;18701;45.588;5.288;2023-06-22T08:34:58;19.67;;;5.05;;
32200;SDS011;18701;45.588;5.288;2023-06-22T08:37:24;11.95;;;4.50;;
32200;SDS011;18701;45.588;5.288;2023-06-22T08:39:55;16.67;;;4.93;;
32200;SDS011;18701;45.588;5.288;2023-06-22T08:42:24;19.33;;;4.78;;
32200;SDS011;18701;45.588;5.288;2023-06-22T08:44:50;24.42;;;5.30;;
32200;SDS011;18701;45.588;5.288;2023-06-22T08:47:16;12.55;;;4.50;;
32200;SDS011;18701;45.588;5.288;2023-06-22T08:49:41;16.17;;;4.78;;
32200;SDS011;18701;45.588;5.288;2023-06-22T08:52:07;16.63;;;4.45;;
32200;SDS011;18701;45.588;5.288;2023-06-22T08:54:33;19.92;;;5.10;;
32200;SDS011;18701;45.588;5.288;2023-06-22T08:56:59;23.80;;;4.10;;
32200;SDS011;18701;45.588;5.288;2023-06-22T08:59:25;20.45;;;3.85;;
32200;SDS011;18701;45.588;5.288;2023-06-22T09:01:51;17.42;;;3.90;;
32200;SDS011;18701;45.588;5.288;2023-06-22T09:04:16;17.38;;;3.42;;
32200;SDS011;18701;45.588;5.288;2023-06-22T09:06:42;21.85;;;4.70;;
32200;SDS011;18701;45.588;5.288;2023-06-22T09:09:12;27.55;;;11.20;;
32200;SDS011;18701;45.588;5.288;2023-06-22T09:11:39;24.42;;;4.85;;
32200;SDS011;18701;45.588;5.288;2023-06-22T09:14:05;16.95;;;4.13;;
32200;SDS011;18701;45.588;5.288;2023-06-22T09:16:31;16.13;;;4.18;;
32200;SDS011;18701;45.588;5.288;2023-06-22T09:18:57;16.90;;;3.67;;
32200;SDS011;18701;45.588;5.288;2023-06-22T09:21:23;15.18;;;3.60;;
32200;SDS011;18701;45.588;5.288;2023-06-22T09:23:49;16.60;;;4.75;;
32200;SDS011;18701;45.588;5.288;2023-06-22T09:26:19;17.23;;;4.13;;
32200;SDS011;18701;45.588;5.288;2023-06-22T09:28:45;19.98;;;3.65;;
32200;SDS011;18701;45.588;5.288;2023-06-22T09:31:10;22.83;;;4.05;;
32200;SDS011;18701;45.588;5.288;2023-06-22T09:33:36;25.45;;;3.88;;
32200;SDS011;18701;45.588;5.288;2023-06-22T09:36:05;16.45;;;3.53;;
32200;SDS011;18701;45.588;5.288;2023-06-22T09:38:35;25.90;;;4.47;;
32200;SDS011;18701;45.588;5.288;2023-06-22T09:41:01;23.85;;;4.18;;
32200;SDS011;18701;45.588;5.288;2023-06-22T09:43:27;19.65;;;4.93;;
32200;SDS011;18701;45.588;5.288;2023-06-22T09:45:53;18.95;;;4.18;;
32200;SDS011;18701;45.588;5.288;2023-06-22T09:48:19;12.65;;;3.58;;
32200;SDS011;18701;45.588;5.288;2023-06-22T09:50:44;21.92;;;4.80;;
32200;SDS011;18701;45.588;5.288;2023-06-22T09:53:10;20.15;;;3.97;;
32200;SDS011;18701;45.588;5.288;2023-06-22T09:55:36;28.05;;;4.35;;
32200;SDS011;18701;45.588;5.288;2023-06-22T09:58:03;15.70;;;4.03;;
32200;SDS011;18701;45.588;5.288;2023-06-22T10:00:29;19.33;;;4.57;;
32200;SDS011;18701;45.588;5.288;2023-06-22T10:02:54;16.83;;;4.65;;
32200;SDS011;18701;45.588;5.288;2023-06-22T10:05:21;24.67;;;4.68;;
32200;SDS011;18701;45.588;5.288;2023-06-22T10:07:47;17.15;;;4.72;;
32200;SDS011;18701;45.588;5.288;2023-06-22T10:10:12;24.65;;;5.22;;
32200;SDS011;18701;45.588;5.288;2023-06-22T10:12:42;17.63;;;5.32;;
32200;SDS011;18701;45.588;5.288;2023-06-22T10:15:09;22.52;;;4.97;;
32200;SDS011;18701;45.588;5.288;2023-06-22T10:17:35;13.55;;;4.50;;
32200;SDS011;18701;45.588;5.288;2023-06-22T10:20:00;14.68;;;4.50;;
32200;SDS011;18701;45.588;5.288;2023-06-22T10:22:36;18.42;;;5.22;;
32200;SDS011;18701;45.588;5.288;2023-06-22T10:25:02;19.90;;;4.95;;
32200;SDS011;18701;45.588;5.288;2023-06-22T10:27:28;19.17;;;5.10;;
32200;SDS011;18701;45.588;5.288;2023-06-22T10:29:54;19.50;;;5.10;;
32200;SDS011;18701;45.588;5.288;2023-06-22T10:32:19;17.88;;;4.88;;
32200;SDS011;18701;45.588;5.288;2023-06-22T10:34:45;21.80;;;4.75;;
32200;SDS011;18701;45.588;5.288;2023-06-22T10:37:11;20.02;;;4.68;;
32200;SDS011;18701;45.588;5.288;2023-06-22T10:39:36;20.65;;;4.93;;
32200;SDS011;18701;45.588;5.288;2023-06-22T10:42:02;15.15;;;4.38;;
32200;SDS011;18701;45.588;5.288;2023-06-22T10:44:27;17.73;;;4.93;;
32200;SDS011;18701;45.588;5.288;2023-06-22T10:46:53;18.05;;;5.20;;
32200;SDS011;18701;45.588;5.288;2023-06-22T10:49:18;16.00;;;4.82;;
32200;SDS011;18701;45.588;5.288;2023-06-22T10:51:44;11.40;;;3.58;;
32200;SDS011;18701;45.588;5.288;2023-06-22T10:54:10;25.77;;;3.95;;
32200;SDS011;18701;45.588;5.288;2023-06-22T10:56:35;16.33;;;4.15;;
32200;SDS011;18701;45.588;5.288;2023-06-22T10:59:01;21.45;;;4.82;;
32200;SDS011;18701;45.588;5.288;2023-06-22T11:01:26;14.95;;;4.10;;
32200;SDS011;18701;45.588;5.288;2023-06-22T11:03:53;22.77;;;4.35;;
32200;SDS011;18701;45.588;5.288;2023-06-22T11:06:18;13.48;;;3.78;;
32200;SDS011;18701;45.588;5.288;2023-06-22T11:08:44;19.10;;;3.83;;
32200;SDS011;18701;45.588;5.288;2023-06-22T11:11:10;12.05;;;4.20;;
32200;SDS011;18701;45.588;5.288;2023-06-22T11:13:36;24.48;;;4.82;;
32200;SDS011;18701;45.588;5.288;2023-06-22T11:16:01;24.95;;;4.85;;
32200;SDS011;18701;45.588;5.288;2023-06-22T11:18:27;33.35;;;5.55;;
32200;SDS011;18701;45.588;5.288;2023-06-22T11:20:52;25.92;;;5.05;;
32200;SDS011;18701;45.588;5.288;2023-06-22T11:23:18;13.07;;;4.13;;
32200;SDS011;18701;45.588;5.288;2023-06-22T11:25:44;21.05;;;4.93;;
32200;SDS011;18701;45.588;5.288;2023-06-22T11:28:11;11.77;;;4.40;;
32200;SDS011;18701;45.588;5.288;2023-06-22T11:30:36;22.48;;;5.45;;
32200;SDS011;18701;45.588;5.288;2023-06-22T11:33:02;16.10;;;4.65;;
32200;SDS011;18701;45.588;5.288;2023-06-22T11:35:28;20.85;;;4.97;;
32200;SDS011;18701;45.588;5.288;2023-06-22T11:37:53;22.00;;;5.60;;
32200;SDS011;18701;45.588;5.288;2023-06-22T11:40:19;19.45;;;4.60;;
32200;SDS011;18701;45.588;5.288;2023-06-22T11:42:44;20.10;;;5.70;;
32200;SDS011;18701;45.588;5.288;2023-06-22T11:45:10;17.90;;;5.25;;
32200;SDS011;18701;45.588;5.288;2023-06-22T11:47:36;21.90;;;5.72;;
32200;SDS011;18701;45.588;5.288;2023-06-22T11:50:02;25.42;;;6.38;;
32200;SDS011;18701;45.588;5.288;2023-06-22T11:52:28;21.17;;;5.38;;
32200;SDS011;18701;45.588;5.288;2023-06-22T11:54:53;22.27;;;6.20;;
32200;SDS011;18701;45.588;5.288;2023-06-22T11:57:19;14.88;;;4.30;;
32200;SDS011;18701;45.588;5.288;2023-06-22T11:59:44;12.95;;;3.92;;
32200;SDS011;18701;45.588;5.288;2023-06-22T12:02:10;14.32;;;3.67;;
32200;SDS011;18701;45.588;5.288;2023-06-22T12:04:36;11.63;;;2.38;;
32200;SDS011;18701;45.588;5.288;2023-06-22T12:07:01;12.02;;;2.30;;
32200;SDS011;18701;45.588;5.288;2023-06-22T12:09:27;8.10;;;1.65;;
32200;SDS011;18701;45.588;5.288;2023-06-22T12:11:53;7.65;;;1.95;;
32200;SDS011;18701;45.588;5.288;2023-06-22T12:14:18;7.45;;;1.92;;
32200;SDS011;18701;45.588;5.288;2023-06-22T12:16:44;10.32;;;1.65;;
32200;SDS011;18701;45.588;5.288;2023-06-22T12:19:10;8.13;;;2.05;;
32200;SDS011;18701;45.588;5.288;2023-06-22T12:21:37;6.97;;;1.52;;
32200;SDS011;18701;45.588;5.288;2023-06-22T12:24:02;11.07;;;1.73;;
32200;SDS011;18701;45.588;5.288;2023-06-22T12:26:28;8.13;;;1.50;;
32200;SDS011;18701;45.588;5.288;2023-06-22T12:28:54;6.38;;;1.40;;
32200;SDS011;18701;45.588;5.288;2023-06-22T12:31:19;13.57;;;2.15;;
32200;SDS011;18701;45.588;5.288;2023-06-22T12:33:45;10.15;;;1.95;;
32200;SDS011;18701;45.588;5.288;2023-06-22T12:36:10;6.20;;;2.00;;
32200;SDS011;18701;45.588;5.288;2023-06-22T12:38:36;6.00;;;1.48;;
32200;SDS011;18701;45.588;5.288;2023-06-22T12:41:04;4.35;;;2.40;;
32200;SDS011;18701;45.588;5.288;2023-06-22T12:43:29;6.75;;;1.48;;
32200;SDS011;18701;45.588;5.288;2023-06-22T12:45:55;6.63;;;1.70;;
32200;SDS011;18701;45.588;5.288;2023-06-22T12:48:21;6.15;;;1.75;;
32200;SDS011;18701;45.588;5.288;2023-06-22T12:50:47;7.55;;;2.25;;
32200;SDS011;18701;45.588;5.288;2023-06-22T12:53:13;9.43;;;1.70;;
32200;SDS011;18701;45.588;5.288;2023-06-22T12:55:38;6.68;;;2.10;;
32200;SDS011;18701;45.588;5.288;2023-06-22T12:58:04;5.88;;;1.88;;
32200;SDS011;18701;45.588;5.288;2023-06-22T13:00:30;5.07;;;1.63;;
32200;SDS011;18701;45.588;5.288;2023-06-22T13:02:55;4.20;;;1.90;;
32200;SDS011;18701;45.588;5.288;2023-06-22T13:05:21;13.07;;;2.25;;
32200;SDS011;18701;45.588;5.288;2023-06-22T13:07:46;6.65;;;1.92;;
32200;SDS011;18701;45.588;5.288;2023-06-22T13:10:12;5.40;;;1.80;;
32200;SDS011;18701;45.588;5.288;2023-06-22T13:12:38;5.50;;;2.20;;
32200;SDS011;18701;45.588;5.288;2023-06-22T13:15:03;6.55;;;1.98;;
32200;SDS011;18701;45.588;5.288;2023-06-22T13:17:29;4.22;;;1.40;;
32200;SDS011;18701;45.588;5.288;2023-06-22T13:19:55;7.32;;;2.40;;
32200;SDS011;18701;45.588;5.288;2023-06-22T13:24:55;12.27;;;2.40;;
32200;SDS011;18701;45.588;5.288;2023-06-22T13:27:21;15.48;;;2.80;;
32200;SDS011;18701;45.588;5.288;2023-06-22T13:29:47;17.65;;;5.15;;
32200;SDS011;18701;45.588;5.288;2023-06-22T13:32:13;36.25;;;6.18;;
32200;SDS011;18701;45.588;5.288;2023-06-22T13:34:38;9.30;;;2.95;;
32200;SDS011;18701;45.588;5.288;2023-06-22T13:37:04;15.95;;;2.72;;
32200;SDS011;18701;45.588;5.288;2023-06-22T13:39:30;12.35;;;3.83;;
32200;SDS011;18701;45.588;5.288;2023-06-22T13:41:56;7.53;;;3.90;;
32200;SDS011;18701;45.588;5.288;2023-06-22T13:44:22;8.50;;;2.80;;
32200;SDS011;18701;45.588;5.288;2023-06-22T13:46:48;7.18;;;2.60;;
32200;SDS011;18701;45.588;5.288;2023-06-22T13:49:13;15.63;;;2.45;;
32200;SDS011;18701;45.588;5.288;2023-06-22T13:51:40;12.13;;;3.00;;
32200;SDS011;18701;45.588;5.288;2023-06-22T13:54:06;14.48;;;2.92;;
32200;SDS011;18701;45.588;5.288;2023-06-22T13:56:32;13.93;;;2.88;;
32200;SDS011;18701;45.588;5.288;2023-06-22T13:58:57;16.38;;;2.72;;
32200;SDS011;18701;45.588;5.288;2023-06-22T14:01:23;11.07;;;2.67;;
32200;SDS011;18701;45.588;5.288;2023-06-22T14:03:48;5.55;;;1.48;;
32200;SDS011;18701;45.588;5.288;2023-06-22T14:06:14;11.63;;;2.40;;
32200;SDS011;18701;45.588;5.288;2023-06-22T14:08:40;15.10;;;1.98;;
32200;SDS011;18701;45.588;5.288;2023-06-22T14:11:05;6.03;;;1.65;;
32200;SDS011;18701;45.588;5.288;2023-06-22T14:13:31;8.15;;;1.35;;
32200;SDS011;18701;45.588;5.288;2023-06-22T14:15:56;7.45;;;1.33;;
32200;SDS011;18701;45.588;5.288;2023-06-22T14:18:22;4.18;;;1.08;;
32200;SDS011;18701;45.588;5.288;2023-06-22T14:20:48;5.18;;;0.90;;
32200;SDS011;18701;45.588;5.288;2023-06-22T14:23:14;6.65;;;1.05;;
32200;SDS011;18701;45.588;5.288;2023-06-22T14:25:40;4.55;;;1.10;;
32200;SDS011;18701;45.588;5.288;2023-06-22T14:28:05;4.72;;;1.00;;
32200;SDS011;18701;45.588;5.288;2023-06-22T14:30:34;2.60;;;0.88;;
32200;SDS011;18701;45.588;5.288;2023-06-22T14:33:00;3.08;;;0.80;;
32200;SDS011;18701;45.588;5.288;2023-06-22T14:35:25;6.63;;;1.35;;
32200;SDS011;18701;45.588;5.288;2023-06-22T14:37:51;4.82;;;0.80;;
32200;SDS011;18701;45.588;5.288;2023-06-22T14:40:16;8.60;;;1.20;;
32200;SDS011;18701;45.588;5.288;2023-06-22T14:42:42;3.33;;;1.00;;